sensor_id;sensor_type;location;lat;lon;timestamp;P1;durP1;ratioP1;P2;durP2;ratioP2
74612;SDS011;63119;51.788;8.824;2022-12-07T00:00:29;53.27;;;20.50;;
74612;SDS011;63119;51.788;8.824;2022-12-07T00:02:54;48.43;;;22.10;;
74612;SDS011;63119;51.788;8.824;2022-12-07T00:05:20;43.90;;;20.40;;
74612;SDS011;63119;51.788;8.824;2022-12-07T00:07:45;45.27;;;20.13;;
74612;SDS011;63119;51.788;8.824;2022-12-07T00:10:11;44.90;;;20.00;;
74612;SDS011;63119;51.788;8.824;2022-12-07T00:12:36;46.63;;;19.83;;
74612;SDS011;63119;51.788;8.824;2022-12-07T00:15:01;48.13;;;21.17;;
74612;SDS011;63119;51.788;8.824;2022-12-07T00:17:26;50.80;;;21.27;;
74612;SDS011;63119;51.788;8.824;2022-12-07T00:19:52;51.17;;;20.67;;
74612;SDS011;63119;51.788;8.824;2022-12-07T00:22:17;46.50;;;19.97;;
74612;SDS011;63119;51.788;8.824;2022-12-07T00:24:42;42.90;;;19.10;;
74612;SDS011;63119;51.788;8.824;2022-12-07T00:27:07;50.13;;;22.83;;
74612;SDS011;63119;51.788;8.824;2022-12-07T00:29:32;48.07;;;21.13;;
74612;SDS011;63119;51.788;8.824;2022-12-07T00:31:58;51.13;;;22.20;;
74612;SDS011;63119;51.788;8.824;2022-12-07T00:34:23;55.53;;;22.97;;
74612;SDS011;63119;51.788;8.824;2022-12-07T00:36:48;52.30;;;21.13;;
74612;SDS011;63119;51.788;8.824;2022-12-07T00:39:14;49.78;;;22.05;;
74612;SDS011;63119;51.788;8.824;2022-12-07T00:41:39;57.60;;;23.93;;
74612;SDS011;63119;51.788;8.824;2022-12-07T00:44:05;54.67;;;23.90;;
74612;SDS011;63119;51.788;8.824;2022-12-07T00:46:30;52.23;;;22.70;;
74612;SDS011;63119;51.788;8.824;2022-12-07T00:48:56;56.97;;;24.10;;
74612;SDS011;63119;51.788;8.824;2022-12-07T00:51:22;52.10;;;22.37;;
74612;SDS011;63119;51.788;8.824;2022-12-07T00:53:49;57.95;;;24.75;;
74612;SDS011;63119;51.788;8.824;2022-12-07T00:56:16;57.00;;;24.02;;
74612;SDS011;63119;51.788;8.824;2022-12-07T00:58:43;52.13;;;24.55;;
74612;SDS011;63119;51.788;8.824;2022-12-07T01:01:10;50.55;;;23.08;;
74612;SDS011;63119;51.788;8.824;2022-12-07T01:03:36;54.00;;;23.80;;
74612;SDS011;63119;51.788;8.824;2022-12-07T01:06:02;58.95;;;23.70;;
74612;SDS011;63119;51.788;8.824;2022-12-07T01:08:27;56.03;;;23.17;;
74612;SDS011;63119;51.788;8.824;2022-12-07T01:11:04;54.25;;;22.77;;
74612;SDS011;63119;51.788;8.824;2022-12-07T01:13:32;56.63;;;24.15;;
74612;SDS011;63119;51.788;8.824;2022-12-07T01:15:59;63.72;;;23.48;;
74612;SDS011;63119;51.788;8.824;2022-12-07T01:18:27;56.58;;;24.92;;
74612;SDS011;63119;51.788;8.824;2022-12-07T01:20:57;59.28;;;24.08;;
74612;SDS011;63119;51.788;8.824;2022-12-07T01:23:23;61.00;;;24.55;;
74612;SDS011;63119;51.788;8.824;2022-12-07T01:25:53;54.97;;;22.77;;
74612;SDS011;63119;51.788;8.824;2022-12-07T01:28:23;55.80;;;23.67;;
74612;SDS011;63119;51.788;8.824;2022-12-07T01:31:02;54.50;;;23.60;;
74612;SDS011;63119;51.788;8.824;2022-12-07T01:33:30;62.45;;;24.23;;
74612;SDS011;63119;51.788;8.824;2022-12-07T01:36:02;54.70;;;23.55;;
74612;SDS011;63119;51.788;8.824;2022-12-07T01:38:27;58.72;;;24.90;;
74612;SDS011;63119;51.788;8.824;2022-12-07T01:40:54;67.00;;;26.42;;
74612;SDS011;63119;51.788;8.824;2022-12-07T01:43:20;59.65;;;24.95;;
74612;SDS011;63119;51.788;8.824;2022-12-07T01:45:47;61.42;;;25.83;;
74612;SDS011;63119;51.788;8.824;2022-12-07T01:48:13;58.40;;;25.20;;
74612;SDS011;63119;51.788;8.824;2022-12-07T01:50:43;54.20;;;23.58;;
74612;SDS011;63119;51.788;8.824;2022-12-07T01:53:10;57.40;;;23.92;;
74612;SDS011;63119;51.788;8.824;2022-12-07T01:55:37;57.33;;;23.55;;
74612;SDS011;63119;51.788;8.824;2022-12-07T01:58:05;52.55;;;22.58;;
74612;SDS011;63119;51.788;8.824;2022-12-07T02:00:31;51.33;;;22.25;;
74612;SDS011;63119;51.788;8.824;2022-12-07T02:02:58;46.73;;;21.63;;
74612;SDS011;63119;51.788;8.824;2022-12-07T02:05:29;49.47;;;21.48;;
74612;SDS011;63119;51.788;8.824;2022-12-07T02:07:55;47.63;;;21.25;;
74612;SDS011;63119;51.788;8.824;2022-12-07T02:10:29;48.40;;;19.83;;
74612;SDS011;63119;51.788;8.824;2022-12-07T02:12:56;44.47;;;21.85;;
74612;SDS011;63119;51.788;8.824;2022-12-07T02:29:13;44.75;;;17.95;;
74612;SDS011;63119;51.788;8.824;2022-12-07T02:31:59;40.75;;;18.92;;
74612;SDS011;63119;51.788;8.824;2022-12-07T02:34:46;44.67;;;19.80;;
74612;SDS011;63119;51.788;8.824;2022-12-07T02:39:57;39.35;;;18.73;;
74612;SDS011;63119;51.788;8.824;2022-12-07T02:42:31;40.58;;;18.83;;
74612;SDS011;63119;51.788;8.824;2022-12-07T02:45:03;39.78;;;18.27;;
74612;SDS011;63119;51.788;8.824;2022-12-07T02:47:31;44.97;;;20.23;;
74612;SDS011;63119;51.788;8.824;2022-12-07T02:49:59;39.20;;;18.33;;
74612;SDS011;63119;51.788;8.824;2022-12-07T02:52:24;38.65;;;17.45;;
74612;SDS011;63119;51.788;8.824;2022-12-07T02:54:49;38.67;;;18.77;;
74612;SDS011;63119;51.788;8.824;2022-12-07T02:57:25;37.37;;;17.50;;
74612;SDS011;63119;51.788;8.824;2022-12-07T03:02:49;41.20;;;18.25;;
74612;SDS011;63119;51.788;8.824;2022-12-07T03:05:29;39.92;;;18.70;;
74612;SDS011;63119;51.788;8.824;2022-12-07T03:08:24;38.75;;;17.00;;
74612;SDS011;63119;51.788;8.824;2022-12-07T03:11:00;35.95;;;17.63;;
74612;SDS011;63119;51.788;8.824;2022-12-07T03:13:39;33.70;;;16.85;;
74612;SDS011;63119;51.788;8.824;2022-12-07T03:16:14;40.13;;;17.45;;
74612;SDS011;63119;51.788;8.824;2022-12-07T03:21:18;36.58;;;16.75;;
74612;SDS011;63119;51.788;8.824;2022-12-07T03:23:48;42.22;;;16.42;;
74612;SDS011;63119;51.788;8.824;2022-12-07T03:26:19;31.40;;;15.02;;
74612;SDS011;63119;51.788;8.824;2022-12-07T03:28:51;29.80;;;14.68;;
74612;SDS011;63119;51.788;8.824;2022-12-07T03:31:24;31.52;;;14.90;;
74612;SDS011;63119;51.788;8.824;2022-12-07T03:33:57;33.92;;;13.93;;
74612;SDS011;63119;51.788;8.824;2022-12-07T03:37:00;28.38;;;13.55;;
74612;SDS011;63119;51.788;8.824;2022-12-07T03:42:04;29.90;;;13.27;;
74612;SDS011;63119;51.788;8.824;2022-12-07T03:44:33;27.05;;;12.05;;
74612;SDS011;63119;51.788;8.824;2022-12-07T03:47:01;27.92;;;12.23;;
74612;SDS011;63119;51.788;8.824;2022-12-07T03:49:49;26.90;;;11.38;;
74612;SDS011;63119;51.788;8.824;2022-12-07T03:57:41;19.38;;;10.20;;
74612;SDS011;63119;51.788;8.824;2022-12-07T04:00:09;25.58;;;10.80;;
74612;SDS011;63119;51.788;8.824;2022-12-07T04:02:37;22.33;;;9.90;;
74612;SDS011;63119;51.788;8.824;2022-12-07T04:05:03;17.95;;;9.68;;
74612;SDS011;63119;51.788;8.824;2022-12-07T04:07:29;18.63;;;9.30;;
74612;SDS011;63119;51.788;8.824;2022-12-07T04:09:54;19.50;;;8.97;;
74612;SDS011;63119;51.788;8.824;2022-12-07T04:12:22;19.15;;;9.07;;
74612;SDS011;63119;51.788;8.824;2022-12-07T04:14:48;19.40;;;8.77;;
74612;SDS011;63119;51.788;8.824;2022-12-07T04:17:13;15.73;;;7.73;;
74612;SDS011;63119;51.788;8.824;2022-12-07T04:19:39;15.20;;;7.43;;
74612;SDS011;63119;51.788;8.824;2022-12-07T04:22:04;14.00;;;7.53;;
74612;SDS011;63119;51.788;8.824;2022-12-07T04:24:30;13.70;;;6.95;;
74612;SDS011;63119;51.788;8.824;2022-12-07T04:26:56;14.65;;;7.18;;
74612;SDS011;63119;51.788;8.824;2022-12-07T04:29:22;15.90;;;6.72;;
74612;SDS011;63119;51.788;8.824;2022-12-07T04:31:48;16.45;;;6.97;;
74612;SDS011;63119;51.788;8.824;2022-12-07T04:34:13;15.18;;;7.25;;
74612;SDS011;63119;51.788;8.824;2022-12-07T04:36:40;15.02;;;6.88;;
74612;SDS011;63119;51.788;8.824;2022-12-07T04:39:06;15.65;;;7.10;;
74612;SDS011;63119;51.788;8.824;2022-12-07T04:41:33;19.02;;;8.27;;
74612;SDS011;63119;51.788;8.824;2022-12-07T04:43:59;15.80;;;6.82;;
74612;SDS011;63119;51.788;8.824;2022-12-07T04:46:27;15.25;;;7.03;;
74612;SDS011;63119;51.788;8.824;2022-12-07T04:48:53;16.50;;;8.63;;
74612;SDS011;63119;51.788;8.824;2022-12-07T04:51:20;16.90;;;8.07;;
74612;SDS011;63119;51.788;8.824;2022-12-07T04:56:13;14.52;;;6.63;;
74612;SDS011;63119;51.788;8.824;2022-12-07T04:58:40;14.43;;;6.10;;
74612;SDS011;63119;51.788;8.824;2022-12-07T05:01:05;14.15;;;7.40;;
74612;SDS011;63119;51.788;8.824;2022-12-07T05:03:31;19.15;;;7.50;;
74612;SDS011;63119;51.788;8.824;2022-12-07T05:05:56;13.93;;;6.23;;
74612;SDS011;63119;51.788;8.824;2022-12-07T05:08:21;13.30;;;6.17;;
74612;SDS011;63119;51.788;8.824;2022-12-07T05:10:48;17.97;;;6.73;;
74612;SDS011;63119;51.788;8.824;2022-12-07T05:13:14;15.70;;;7.32;;
74612;SDS011;63119;51.788;8.824;2022-12-07T05:15:40;12.90;;;7.27;;
74612;SDS011;63119;51.788;8.824;2022-12-07T05:18:05;13.65;;;6.45;;
74612;SDS011;63119;51.788;8.824;2022-12-07T05:20:30;16.70;;;7.40;;
74612;SDS011;63119;51.788;8.824;2022-12-07T05:22:56;16.37;;;7.93;;
74612;SDS011;63119;51.788;8.824;2022-12-07T05:25:23;18.40;;;8.32;;
74612;SDS011;63119;51.788;8.824;2022-12-07T05:27:49;15.50;;;6.93;;
74612;SDS011;63119;51.788;8.824;2022-12-07T05:30:14;18.05;;;7.43;;
74612;SDS011;63119;51.788;8.824;2022-12-07T05:32:40;20.00;;;8.48;;
74612;SDS011;63119;51.788;8.824;2022-12-07T05:35:05;18.07;;;8.43;;
74612;SDS011;63119;51.788;8.824;2022-12-07T05:37:31;16.25;;;8.60;;
74612;SDS011;63119;51.788;8.824;2022-12-07T05:39:57;17.53;;;9.33;;
74612;SDS011;63119;51.788;8.824;2022-12-07T05:42:22;19.77;;;8.87;;
74612;SDS011;63119;51.788;8.824;2022-12-07T05:44:47;24.77;;;8.97;;
74612;SDS011;63119;51.788;8.824;2022-12-07T05:47:13;19.50;;;9.27;;
74612;SDS011;63119;51.788;8.824;2022-12-07T05:49:39;17.65;;;8.23;;
74612;SDS011;63119;51.788;8.824;2022-12-07T05:52:05;22.53;;;8.93;;
74612;SDS011;63119;51.788;8.824;2022-12-07T05:54:31;21.23;;;9.23;;
74612;SDS011;63119;51.788;8.824;2022-12-07T05:56:56;20.17;;;10.20;;
74612;SDS011;63119;51.788;8.824;2022-12-07T05:59:22;19.93;;;10.10;;
74612;SDS011;63119;51.788;8.824;2022-12-07T06:01:47;21.48;;;10.27;;
74612;SDS011;63119;51.788;8.824;2022-12-07T06:04:13;28.02;;;11.48;;
74612;SDS011;63119;51.788;8.824;2022-12-07T06:06:38;23.53;;;10.57;;
74612;SDS011;63119;51.788;8.824;2022-12-07T06:09:04;24.52;;;11.00;;
74612;SDS011;63119;51.788;8.824;2022-12-07T06:11:29;21.23;;;10.48;;
74612;SDS011;63119;51.788;8.824;2022-12-07T06:14:13;19.75;;;10.40;;
74612;SDS011;63119;51.788;8.824;2022-12-07T06:16:39;22.13;;;10.32;;
74612;SDS011;63119;51.788;8.824;2022-12-07T06:19:04;18.67;;;8.60;;
74612;SDS011;63119;51.788;8.824;2022-12-07T06:21:30;20.08;;;9.32;;
74612;SDS011;63119;51.788;8.824;2022-12-07T06:23:55;23.37;;;9.90;;
74612;SDS011;63119;51.788;8.824;2022-12-07T06:26:21;22.40;;;10.63;;
74612;SDS011;63119;51.788;8.824;2022-12-07T06:28:46;18.73;;;9.15;;
74612;SDS011;63119;51.788;8.824;2022-12-07T06:31:11;25.33;;;9.88;;
74612;SDS011;63119;51.788;8.824;2022-12-07T06:33:37;20.27;;;9.37;;
74612;SDS011;63119;51.788;8.824;2022-12-07T06:36:02;22.13;;;10.13;;
74612;SDS011;63119;51.788;8.824;2022-12-07T06:38:27;22.25;;;10.10;;
74612;SDS011;63119;51.788;8.824;2022-12-07T06:40:52;20.47;;;9.27;;
74612;SDS011;63119;51.788;8.824;2022-12-07T06:43:18;18.70;;;9.13;;
74612;SDS011;63119;51.788;8.824;2022-12-07T06:45:43;16.10;;;8.73;;
74612;SDS011;63119;51.788;8.824;2022-12-07T06:48:08;20.50;;;10.00;;
74612;SDS011;63119;51.788;8.824;2022-12-07T06:50:34;19.33;;;10.23;;
74612;SDS011;63119;51.788;8.824;2022-12-07T06:52:59;21.63;;;9.97;;
74612;SDS011;63119;51.788;8.824;2022-12-07T06:55:24;18.53;;;9.53;;
74612;SDS011;63119;51.788;8.824;2022-12-07T06:57:49;20.25;;;9.35;;
74612;SDS011;63119;51.788;8.824;2022-12-07T07:00:15;19.60;;;9.40;;
74612;SDS011;63119;51.788;8.824;2022-12-07T07:02:41;19.60;;;9.45;;
74612;SDS011;63119;51.788;8.824;2022-12-07T07:05:06;20.23;;;9.03;;
74612;SDS011;63119;51.788;8.824;2022-12-07T07:07:32;22.90;;;10.23;;
74612;SDS011;63119;51.788;8.824;2022-12-07T07:09:57;22.80;;;9.73;;
74612;SDS011;63119;51.788;8.824;2022-12-07T07:12:22;19.63;;;9.80;;
74612;SDS011;63119;51.788;8.824;2022-12-07T07:14:47;18.13;;;9.03;;
74612;SDS011;63119;51.788;8.824;2022-12-07T07:17:13;22.27;;;9.37;;
74612;SDS011;63119;51.788;8.824;2022-12-07T07:19:38;20.60;;;9.73;;
74612;SDS011;63119;51.788;8.824;2022-12-07T07:22:03;25.30;;;9.20;;
74612;SDS011;63119;51.788;8.824;2022-12-07T07:24:29;24.25;;;9.80;;
74612;SDS011;63119;51.788;8.824;2022-12-07T07:26:54;17.88;;;9.88;;
74612;SDS011;63119;51.788;8.824;2022-12-07T07:29:19;20.37;;;10.00;;
74612;SDS011;63119;51.788;8.824;2022-12-07T07:31:45;24.43;;;10.40;;
74612;SDS011;63119;51.788;8.824;2022-12-07T07:34:10;24.03;;;11.20;;
74612;SDS011;63119;51.788;8.824;2022-12-07T07:36:35;20.57;;;9.20;;
74612;SDS011;63119;51.788;8.824;2022-12-07T07:39:00;19.97;;;9.47;;
74612;SDS011;63119;51.788;8.824;2022-12-07T07:41:26;18.00;;;8.40;;
74612;SDS011;63119;51.788;8.824;2022-12-07T07:43:51;20.43;;;9.20;;
74612;SDS011;63119;51.788;8.824;2022-12-07T07:46:16;21.50;;;9.10;;
74612;SDS011;63119;51.788;8.824;2022-12-07T07:48:41;24.57;;;12.77;;
74612;SDS011;63119;51.788;8.824;2022-12-07T07:51:07;23.00;;;11.87;;
74612;SDS011;63119;51.788;8.824;2022-12-07T07:53:33;20.17;;;9.38;;
74612;SDS011;63119;51.788;8.824;2022-12-07T07:55:58;24.50;;;10.17;;
74612;SDS011;63119;51.788;8.824;2022-12-07T07:58:23;42.40;;;18.00;;
74612;SDS011;63119;51.788;8.824;2022-12-07T08:00:49;20.73;;;9.17;;
74612;SDS011;63119;51.788;8.824;2022-12-07T08:03:14;20.88;;;10.18;;
74612;SDS011;63119;51.788;8.824;2022-12-07T08:05:40;18.38;;;9.02;;
74612;SDS011;63119;51.788;8.824;2022-12-07T08:08:05;22.70;;;10.53;;
74612;SDS011;63119;51.788;8.824;2022-12-07T08:10:30;18.77;;;9.50;;
74612;SDS011;63119;51.788;8.824;2022-12-07T08:12:57;14.68;;;9.90;;
74612;SDS011;63119;51.788;8.824;2022-12-07T08:15:41;18.17;;;9.48;;
74612;SDS011;63119;51.788;8.824;2022-12-07T08:18:09;20.38;;;9.45;;
74612;SDS011;63119;51.788;8.824;2022-12-07T08:20:34;18.98;;;10.70;;
74612;SDS011;63119;51.788;8.824;2022-12-07T08:23:01;20.13;;;8.57;;
74612;SDS011;63119;51.788;8.824;2022-12-07T08:25:27;15.40;;;8.00;;
74612;SDS011;63119;51.788;8.824;2022-12-07T08:27:53;21.88;;;7.30;;
74612;SDS011;63119;51.788;8.824;2022-12-07T08:30:19;14.40;;;6.90;;
74612;SDS011;63119;51.788;8.824;2022-12-07T08:32:45;13.93;;;6.05;;
74612;SDS011;63119;51.788;8.824;2022-12-07T08:35:11;18.10;;;6.88;;
74612;SDS011;63119;51.788;8.824;2022-12-07T08:37:38;19.00;;;10.43;;
74612;SDS011;63119;51.788;8.824;2022-12-07T08:40:04;19.60;;;7.85;;
74612;SDS011;63119;51.788;8.824;2022-12-07T08:42:31;15.50;;;7.35;;
74612;SDS011;63119;51.788;8.824;2022-12-07T08:45:03;18.40;;;7.90;;
74612;SDS011;63119;51.788;8.824;2022-12-07T08:47:30;16.77;;;7.65;;
74612;SDS011;63119;51.788;8.824;2022-12-07T08:49:55;15.25;;;7.22;;
74612;SDS011;63119;51.788;8.824;2022-12-07T08:52:21;15.20;;;7.47;;
74612;SDS011;63119;51.788;8.824;2022-12-07T08:54:47;13.50;;;7.22;;
74612;SDS011;63119;51.788;8.824;2022-12-07T08:57:13;14.80;;;6.75;;
74612;SDS011;63119;51.788;8.824;2022-12-07T08:59:38;17.27;;;7.70;;
74612;SDS011;63119;51.788;8.824;2022-12-07T09:02:04;18.40;;;8.07;;
74612;SDS011;63119;51.788;8.824;2022-12-07T09:04:30;14.82;;;7.25;;
74612;SDS011;63119;51.788;8.824;2022-12-07T09:06:56;17.65;;;7.85;;
74612;SDS011;63119;51.788;8.824;2022-12-07T09:09:21;12.27;;;5.95;;
74612;SDS011;63119;51.788;8.824;2022-12-07T09:11:47;12.93;;;6.67;;
74612;SDS011;63119;51.788;8.824;2022-12-07T09:14:12;18.87;;;6.63;;
74612;SDS011;63119;51.788;8.824;2022-12-07T09:16:38;11.45;;;5.93;;
74612;SDS011;63119;51.788;8.824;2022-12-07T09:19:04;15.05;;;7.13;;
74612;SDS011;63119;51.788;8.824;2022-12-07T09:21:29;15.80;;;8.13;;
74612;SDS011;63119;51.788;8.824;2022-12-07T09:23:55;15.55;;;7.15;;
74612;SDS011;63119;51.788;8.824;2022-12-07T09:26:20;12.60;;;5.05;;
74612;SDS011;63119;51.788;8.824;2022-12-07T09:28:45;12.17;;;4.30;;
74612;SDS011;63119;51.788;8.824;2022-12-07T09:31:11;12.37;;;5.13;;
74612;SDS011;63119;51.788;8.824;2022-12-07T09:33:36;17.13;;;5.90;;
74612;SDS011;63119;51.788;8.824;2022-12-07T09:36:02;11.97;;;6.20;;
74612;SDS011;63119;51.788;8.824;2022-12-07T09:38:28;12.40;;;4.78;;
74612;SDS011;63119;51.788;8.824;2022-12-07T09:40:54;13.55;;;5.45;;
74612;SDS011;63119;51.788;8.824;2022-12-07T09:43:21;11.20;;;5.03;;
74612;SDS011;63119;51.788;8.824;2022-12-07T09:45:50;11.35;;;4.75;;
74612;SDS011;63119;51.788;8.824;2022-12-07T09:48:20;10.88;;;4.55;;
74612;SDS011;63119;51.788;8.824;2022-12-07T09:50:47;10.23;;;4.72;;
74612;SDS011;63119;51.788;8.824;2022-12-07T09:53:15;8.20;;;4.65;;
74612;SDS011;63119;51.788;8.824;2022-12-07T09:55:47;10.55;;;4.65;;
74612;SDS011;63119;51.788;8.824;2022-12-07T09:58:17;10.77;;;4.55;;
74612;SDS011;63119;51.788;8.824;2022-12-07T10:00:47;17.50;;;5.82;;
74612;SDS011;63119;51.788;8.824;2022-12-07T10:03:12;19.95;;;7.82;;
74612;SDS011;63119;51.788;8.824;2022-12-07T10:05:39;15.57;;;7.10;;
74612;SDS011;63119;51.788;8.824;2022-12-07T10:08:10;18.50;;;8.82;;
74612;SDS011;63119;51.788;8.824;2022-12-07T10:10:37;12.30;;;5.70;;
74612;SDS011;63119;51.788;8.824;2022-12-07T10:13:09;14.23;;;6.68;;
74612;SDS011;63119;51.788;8.824;2022-12-07T10:15:53;8.20;;;4.38;;
74612;SDS011;63119;51.788;8.824;2022-12-07T10:20:50;13.82;;;5.18;;
74612;SDS011;63119;51.788;8.824;2022-12-07T10:23:25;10.30;;;5.50;;
74612;SDS011;63119;51.788;8.824;2022-12-07T10:25:51;15.43;;;5.40;;
74612;SDS011;63119;51.788;8.824;2022-12-07T10:28:19;11.65;;;4.88;;
74612;SDS011;63119;51.788;8.824;2022-12-07T10:30:50;6.53;;;4.53;;
74612;SDS011;63119;51.788;8.824;2022-12-07T10:34:01;13.60;;;4.75;;
74612;SDS011;63119;51.788;8.824;2022-12-07T10:36:16;7.90;;;4.82;;
74612;SDS011;63119;51.788;8.824;2022-12-07T10:38:48;9.95;;;5.35;;
74612;SDS011;63119;51.788;8.824;2022-12-07T10:41:15;9.65;;;4.68;;
74612;SDS011;63119;51.788;8.824;2022-12-07T10:46:48;11.18;;;4.75;;
74612;SDS011;63119;51.788;8.824;2022-12-07T10:52:23;10.98;;;4.82;;
74612;SDS011;63119;51.788;8.824;2022-12-07T11:01:10;11.65;;;5.07;;
74612;SDS011;63119;51.788;8.824;2022-12-07T11:12:04;7.55;;;4.18;;
74612;SDS011;63119;51.788;8.824;2022-12-07T11:14:54;12.65;;;4.10;;
74612;SDS011;63119;51.788;8.824;2022-12-07T11:17:31;12.65;;;4.78;;
74612;SDS011;63119;51.788;8.824;2022-12-07T11:20:34;12.93;;;6.13;;
74612;SDS011;63119;51.788;8.824;2022-12-07T11:26:11;23.02;;;10.70;;
74612;SDS011;63119;51.788;8.824;2022-12-07T11:31:29;26.40;;;12.05;;
74612;SDS011;63119;51.788;8.824;2022-12-07T11:34:08;15.65;;;7.20;;
74612;SDS011;63119;51.788;8.824;2022-12-07T11:36:45;15.25;;;5.70;;
74612;SDS011;63119;51.788;8.824;2022-12-07T11:42:01;23.77;;;8.95;;
74612;SDS011;63119;51.788;8.824;2022-12-07T11:44:36;16.38;;;7.82;;
74612;SDS011;63119;51.788;8.824;2022-12-07T11:47:13;17.27;;;8.45;;
74612;SDS011;63119;51.788;8.824;2022-12-07T11:49:49;14.85;;;6.30;;
74612;SDS011;63119;51.788;8.824;2022-12-07T11:52:24;20.63;;;7.93;;
74612;SDS011;63119;51.788;8.824;2022-12-07T11:54:55;12.45;;;5.63;;
74612;SDS011;63119;51.788;8.824;2022-12-07T11:57:36;17.67;;;6.60;;
74612;SDS011;63119;51.788;8.824;2022-12-07T12:00:09;14.35;;;7.47;;
74612;SDS011;63119;51.788;8.824;2022-12-07T12:02:49;12.07;;;5.47;;
74612;SDS011;63119;51.788;8.824;2022-12-07T12:05:21;22.77;;;9.90;;
74612;SDS011;63119;51.788;8.824;2022-12-07T12:08:00;13.00;;;6.80;;
74612;SDS011;63119;51.788;8.824;2022-12-07T12:13:34;9.77;;;4.03;;
74612;SDS011;63119;51.788;8.824;2022-12-07T12:20:05;12.10;;;3.63;;
74612;SDS011;63119;51.788;8.824;2022-12-07T12:22:10;7.38;;;3.47;;
74612;SDS011;63119;51.788;8.824;2022-12-07T12:24:38;8.32;;;3.65;;
74612;SDS011;63119;51.788;8.824;2022-12-07T12:27:15;7.80;;;4.10;;
74612;SDS011;63119;51.788;8.824;2022-12-07T12:29:52;8.88;;;3.53;;
74612;SDS011;63119;51.788;8.824;2022-12-07T12:32:21;10.43;;;3.88;;
74612;SDS011;63119;51.788;8.824;2022-12-07T12:42:45;7.78;;;3.28;;
74612;SDS011;63119;51.788;8.824;2022-12-07T12:45:28;12.02;;;3.72;;
74612;SDS011;63119;51.788;8.824;2022-12-07T12:48:02;7.20;;;3.10;;
74612;SDS011;63119;51.788;8.824;2022-12-07T12:50:29;8.98;;;2.90;;
74612;SDS011;63119;51.788;8.824;2022-12-07T12:53:02;8.48;;;3.08;;
74612;SDS011;63119;51.788;8.824;2022-12-07T12:58:50;8.90;;;3.35;;
74612;SDS011;63119;51.788;8.824;2022-12-07T13:04:01;8.57;;;4.30;;
74612;SDS011;63119;51.788;8.824;2022-12-07T13:08:53;10.40;;;3.97;;
74612;SDS011;63119;51.788;8.824;2022-12-07T13:11:35;7.25;;;4.97;;
74612;SDS011;63119;51.788;8.824;2022-12-07T13:17:10;7.53;;;2.65;;
74612;SDS011;63119;51.788;8.824;2022-12-07T13:22:50;6.32;;;3.22;;
74612;SDS011;63119;51.788;8.824;2022-12-07T13:27:24;6.45;;;2.70;;
74612;SDS011;63119;51.788;8.824;2022-12-07T13:29:51;8.75;;;2.90;;
74612;SDS011;63119;51.788;8.824;2022-12-07T13:32:22;7.97;;;2.88;;
74612;SDS011;63119;51.788;8.824;2022-12-07T13:34:50;7.30;;;2.55;;
74612;SDS011;63119;51.788;8.824;2022-12-07T13:37:19;11.30;;;3.10;;
74612;SDS011;63119;51.788;8.824;2022-12-07T13:39:56;8.65;;;2.67;;
74612;SDS011;63119;51.788;8.824;2022-12-07T13:42:24;8.15;;;3.83;;
74612;SDS011;63119;51.788;8.824;2022-12-07T13:44:55;10.27;;;2.88;;
74612;SDS011;63119;51.788;8.824;2022-12-07T13:50:28;5.95;;;2.70;;
74612;SDS011;63119;51.788;8.824;2022-12-07T13:52:57;5.20;;;2.30;;
74612;SDS011;63119;51.788;8.824;2022-12-07T13:55:23;8.10;;;2.80;;
74612;SDS011;63119;51.788;8.824;2022-12-07T13:57:51;7.30;;;2.95;;
74612;SDS011;63119;51.788;8.824;2022-12-07T14:00:18;5.72;;;2.22;;
74612;SDS011;63119;51.788;8.824;2022-12-07T14:03:03;8.93;;;4.95;;
74612;SDS011;63119;51.788;8.824;2022-12-07T14:06:02;15.50;;;5.15;;
74612;SDS011;63119;51.788;8.824;2022-12-07T14:08:40;9.07;;;3.88;;
74612;SDS011;63119;51.788;8.824;2022-12-07T14:11:06;5.35;;;2.83;;
74612;SDS011;63119;51.788;8.824;2022-12-07T14:13:39;8.05;;;2.78;;
74612;SDS011;63119;51.788;8.824;2022-12-07T14:18:57;5.55;;;2.45;;
74612;SDS011;63119;51.788;8.824;2022-12-07T14:21:25;9.55;;;2.58;;
74612;SDS011;63119;51.788;8.824;2022-12-07T14:24:02;13.27;;;2.90;;
74612;SDS011;63119;51.788;8.824;2022-12-07T14:26:38;7.30;;;4.00;;
74612;SDS011;63119;51.788;8.824;2022-12-07T14:29:21;8.35;;;2.30;;
74612;SDS011;63119;51.788;8.824;2022-12-07T14:31:49;7.72;;;2.58;;
74612;SDS011;63119;51.788;8.824;2022-12-07T14:34:15;8.35;;;2.63;;
74612;SDS011;63119;51.788;8.824;2022-12-07T14:36:40;5.83;;;2.33;;
74612;SDS011;63119;51.788;8.824;2022-12-07T14:39:06;8.43;;;2.97;;
74612;SDS011;63119;51.788;8.824;2022-12-07T14:41:31;7.23;;;2.50;;
74612;SDS011;63119;51.788;8.824;2022-12-07T14:44:15;6.75;;;2.38;;
74612;SDS011;63119;51.788;8.824;2022-12-07T14:46:40;8.73;;;2.23;;
74612;SDS011;63119;51.788;8.824;2022-12-07T14:49:05;9.50;;;2.47;;
74612;SDS011;63119;51.788;8.824;2022-12-07T14:51:31;7.70;;;2.53;;
74612;SDS011;63119;51.788;8.824;2022-12-07T14:53:57;8.82;;;2.40;;
74612;SDS011;63119;51.788;8.824;2022-12-07T14:56:23;7.90;;;2.35;;
74612;SDS011;63119;51.788;8.824;2022-12-07T14:58:49;4.75;;;2.30;;
74612;SDS011;63119;51.788;8.824;2022-12-07T15:01:14;6.17;;;2.07;;
74612;SDS011;63119;51.788;8.824;2022-12-07T15:03:39;4.17;;;2.10;;
74612;SDS011;63119;51.788;8.824;2022-12-07T15:06:05;8.83;;;2.30;;
74612;SDS011;63119;51.788;8.824;2022-12-07T15:08:31;3.78;;;1.90;;
74612;SDS011;63119;51.788;8.824;2022-12-07T15:10:56;5.50;;;2.03;;
74612;SDS011;63119;51.788;8.824;2022-12-07T15:13:21;8.93;;;2.50;;
74612;SDS011;63119;51.788;8.824;2022-12-07T15:16:07;9.30;;;2.88;;
74612;SDS011;63119;51.788;8.824;2022-12-07T15:18:41;6.80;;;2.78;;
74612;SDS011;63119;51.788;8.824;2022-12-07T15:21:10;5.17;;;2.80;;
74612;SDS011;63119;51.788;8.824;2022-12-07T15:23:40;16.15;;;7.53;;
74612;SDS011;63119;51.788;8.824;2022-12-07T15:26:05;19.10;;;7.97;;
74612;SDS011;63119;51.788;8.824;2022-12-07T15:28:31;13.63;;;6.87;;
74612;SDS011;63119;51.788;8.824;2022-12-07T15:30:56;19.63;;;8.03;;
74612;SDS011;63119;51.788;8.824;2022-12-07T15:33:21;19.77;;;9.63;;
74612;SDS011;63119;51.788;8.824;2022-12-07T15:35:46;13.17;;;7.23;;
74612;SDS011;63119;51.788;8.824;2022-12-07T15:38:12;7.83;;;4.20;;
74612;SDS011;63119;51.788;8.824;2022-12-07T15:40:37;13.15;;;5.28;;
74612;SDS011;63119;51.788;8.824;2022-12-07T15:43:03;9.25;;;4.18;;
74612;SDS011;63119;51.788;8.824;2022-12-07T15:45:29;13.60;;;5.00;;
74612;SDS011;63119;51.788;8.824;2022-12-07T15:47:54;11.75;;;4.25;;
74612;SDS011;63119;51.788;8.824;2022-12-07T15:50:20;13.68;;;5.72;;
74612;SDS011;63119;51.788;8.824;2022-12-07T15:52:46;16.05;;;5.65;;
74612;SDS011;63119;51.788;8.824;2022-12-07T15:55:11;8.47;;;4.30;;
74612;SDS011;63119;51.788;8.824;2022-12-07T15:57:37;7.77;;;3.60;;
74612;SDS011;63119;51.788;8.824;2022-12-07T16:00:04;19.13;;;8.65;;
74612;SDS011;63119;51.788;8.824;2022-12-07T16:02:31;11.98;;;6.07;;
74612;SDS011;63119;51.788;8.824;2022-12-07T16:04:56;8.23;;;4.20;;
74612;SDS011;63119;51.788;8.824;2022-12-07T16:07:21;5.87;;;3.47;;
74612;SDS011;63119;51.788;8.824;2022-12-07T16:09:47;7.53;;;3.35;;
74612;SDS011;63119;51.788;8.824;2022-12-07T16:12:14;8.57;;;4.43;;
74612;SDS011;63119;51.788;8.824;2022-12-07T16:14:40;11.95;;;5.45;;
74612;SDS011;63119;51.788;8.824;2022-12-07T16:17:06;11.10;;;4.28;;
74612;SDS011;63119;51.788;8.824;2022-12-07T16:19:32;12.23;;;5.47;;
74612;SDS011;63119;51.788;8.824;2022-12-07T16:21:58;15.82;;;6.47;;